createdAt,value
2023-03-06T00:04:14.938Z,18.56
2023-03-06T00:09:17.781Z,18.65
2023-03-06T00:14:20.604Z,18.75
2023-03-06T00:19:24.940Z,18.69
2023-03-06T00:24:27.723Z,18.55
2023-03-06T00:29:30.537Z,18.41
2023-03-06T00:34:34.702Z,18.62
2023-03-06T00:39:37.558Z,18.33
2023-03-06T00:44:40.362Z,18.55
2023-03-06T00:49:44.770Z,18.32
2023-03-06T00:54:47.607Z,18.13
2023-03-06T00:59:50.462Z,18.34
2023-03-06T01:04:54.627Z,18.28
2023-03-06T01:09:57.445Z,18.28
2023-03-06T01:15:00.361Z,18.42
2023-03-06T01:20:05.352Z,18.24
2023-03-06T01:25:08.782Z,18.19
2023-03-06T01:30:13.183Z,18.28
2023-03-06T01:35:17.480Z,18.24
2023-03-06T01:40:20.563Z,18.07
2023-03-06T01:45:57.551Z,18.15
2023-03-06T01:51:01.739Z,17.99
2023-03-06T01:56:04.955Z,17.98
2023-03-06T02:01:08.418Z,18.13
2023-03-06T02:06:12.610Z,17.98
2023-03-06T02:11:17.859Z,17.98
2023-03-06T02:16:24.192Z,18.03
2023-03-06T02:21:30.119Z,18.01
2023-03-06T02:26:35.479Z,17.85
2023-03-06T02:31:38.363Z,17.83
2023-03-06T02:36:43.943Z,17.73
2023-03-06T02:41:48.100Z,17.94
2023-03-06T02:46:50.950Z,17.81
2023-03-06T02:51:53.883Z,17.94
2023-03-06T02:56:58.155Z,17.76
2023-03-06T03:02:01.038Z,17.83
2023-03-06T03:07:03.852Z,17.74
2023-03-06T03:12:09.101Z,17.76
2023-03-06T03:17:11.899Z,17.60
2023-03-06T03:22:14.890Z,17.57
2023-03-06T03:27:19.085Z,17.69
2023-03-06T03:32:22.010Z,17.66
2023-03-06T03:37:24.953Z,17.55
2023-03-06T03:42:29.366Z,17.44
2023-03-06T03:47:32.218Z,17.75
2023-03-06T03:52:35.131Z,17.54
2023-03-06T03:57:39.328Z,17.37
2023-03-06T04:02:42.496Z,17.59
2023-03-06T04:07:45.416Z,17.51
2023-03-06T04:12:49.593Z,17.39
2023-03-06T04:17:52.409Z,17.47
2023-03-06T04:22:55.297Z,17.44
2023-03-06T04:27:59.547Z,17.37
2023-03-06T04:33:02.470Z,17.36
2023-03-06T04:38:05.541Z,17.28
2023-03-06T04:43:09.698Z,17.22
2023-03-06T04:48:14.223Z,17.21
2023-03-06T04:53:19.573Z,17.29
2023-03-06T04:58:26.419Z,17.26
2023-03-06T05:03:29.218Z,17.22
2023-03-06T05:08:32.846Z,17.29
2023-03-06T05:13:39.528Z,17.15
2023-03-06T05:18:42.359Z,17.19
2023-03-06T05:23:46.019Z,17.02
2023-03-06T05:28:50.292Z,17.18
2023-03-06T05:33:53.110Z,17.05
2023-03-06T05:38:56.011Z,17.13
2023-03-06T05:44:00.232Z,17.10
2023-03-06T05:49:03.079Z,17.00
2023-03-06T05:54:05.906Z,17.21
2023-03-06T05:59:10.117Z,17.08
2023-03-06T06:04:12.958Z,16.87
2023-03-06T06:09:16.525Z,16.89
2023-03-06T06:14:21.066Z,17.08
2023-03-06T06:19:29.081Z,16.87
2023-03-06T06:24:32.746Z,16.85
2023-03-06T06:29:37.010Z,16.97
2023-03-06T06:34:40.153Z,16.84
2023-03-06T06:39:43.010Z,16.91
2023-03-06T06:44:47.201Z,16.89
2023-03-06T06:49:51.334Z,16.76
2023-03-06T06:54:54.408Z,16.99
2023-03-06T06:59:58.617Z,16.83
2023-03-06T07:05:04.653Z,16.80
2023-03-06T07:10:11.631Z,17.60
2023-03-06T07:15:18.488Z,17.76
2023-03-06T07:20:21.514Z,18.71
2023-03-06T07:25:24.389Z,18.46
2023-03-06T07:30:28.622Z,18.77
2023-03-06T07:35:31.630Z,19.07
2023-03-06T07:40:34.508Z,18.61
2023-03-06T07:45:38.717Z,18.38
2023-03-06T07:50:41.921Z,18.36
2023-03-06T07:55:44.786Z,18.30
2023-03-06T08:00:49.136Z,18.62
2023-03-06T08:05:51.951Z,18.63
2023-03-06T08:10:54.822Z,18.64
2023-03-06T08:15:59.798Z,18.88
2023-03-06T08:21:04.169Z,18.76
2023-03-06T08:26:10.975Z,18.79
2023-03-06T08:31:25.057Z,18.87
2023-03-06T08:36:28.369Z,18.78
2023-03-06T08:41:31.549Z,19.43
2023-03-06T08:46:36.260Z,19.25
2023-03-06T08:51:39.118Z,18.94
2023-03-06T08:56:42.015Z,18.99
2023-03-06T09:01:46.684Z,19.12
2023-03-06T09:06:49.726Z,19.23
2023-03-06T09:11:53.611Z,19.02
2023-03-06T09:16:57.898Z,18.93
2023-03-06T09:22:01.062Z,19.14
2023-03-06T09:27:04.058Z,19.14
2023-03-06T09:32:10.645Z,19.14
2023-03-06T09:37:16.252Z,19.14
2023-03-06T09:42:21.887Z,19.04
2023-03-06T09:47:39.502Z,19.16
2023-03-06T09:52:46.366Z,19.22
2023-03-06T09:57:55.386Z,19.22
2023-03-06T10:03:05.214Z,19.17
2023-03-06T10:08:20.213Z,19.23
2023-03-06T10:13:28.161Z,19.10
2023-03-06T10:18:32.881Z,19.23
2023-03-06T10:23:43.652Z,19.52
2023-03-06T10:28:50.055Z,19.29
2023-03-06T10:33:57.011Z,19.32
2023-03-06T10:39:00.522Z,19.34
2023-03-06T10:44:25.955Z,19.25
2023-03-06T10:49:33.891Z,19.57
2023-03-06T10:54:37.885Z,19.42
2023-03-06T10:59:51.844Z,19.28
2023-03-06T11:04:57.083Z,19.54
2023-03-06T11:10:07.652Z,19.70
2023-03-06T11:15:18.608Z,19.47
2023-03-06T11:20:26.338Z,19.28
2023-03-06T11:25:33.124Z,19.39
2023-03-06T11:30:42.896Z,19.23
2023-03-06T11:35:53.327Z,19.97
2023-03-06T11:41:00.322Z,19.72
2023-03-06T11:46:08.633Z,19.56
2023-03-06T11:51:16.013Z,19.48
2023-03-06T11:56:29.470Z,19.61
2023-03-06T12:01:36.345Z,19.36
2023-03-06T12:06:48.410Z,20.49
2023-03-06T12:12:00.494Z,19.75
2023-03-06T12:17:12.381Z,19.35
2023-03-06T12:22:35.770Z,19.76
2023-03-06T12:27:43.800Z,23.10
2023-03-06T12:32:50.597Z,23.88
2023-03-06T12:38:01.985Z,24.09
2023-03-06T12:43:22.749Z,26.46
2023-03-06T12:48:27.872Z,26.08
2023-03-06T12:53:33.352Z,25.78
2023-03-06T12:58:45.321Z,26.07
2023-03-06T13:04:01.039Z,28.22
2023-03-06T13:09:15.070Z,29.46
2023-03-06T13:14:25.653Z,30.41
2023-03-06T13:19:28.627Z,31.34
2023-03-06T13:24:34.582Z,31.73
2023-03-06T13:29:52.991Z,32.19
2023-03-06T13:34:56.089Z,32.71
2023-03-06T13:40:28.159Z,32.78
2023-03-06T13:45:35.441Z,33.25
2023-03-06T13:50:40.259Z,33.64
2023-03-06T13:55:51.877Z,33.62
2023-03-06T14:01:13.986Z,33.08
2023-03-06T14:06:42.420Z,32.67
2023-03-06T14:11:51.783Z,33.21
2023-03-06T14:16:54.905Z,33.20
2023-03-06T14:21:58.612Z,32.60
2023-03-06T14:27:03.010Z,32.89
2023-03-06T14:32:10.744Z,33.47
2023-03-06T14:37:22.225Z,32.87
2023-03-06T14:42:27.451Z,32.56
2023-03-06T14:47:32.053Z,32.75
2023-03-06T14:52:35.134Z,32.17
2023-03-06T14:57:39.458Z,33.23
2023-03-06T15:02:42.857Z,33.52
2023-03-06T15:07:45.983Z,34.02
2023-03-06T15:12:50.200Z,33.39
2023-03-06T15:17:53.464Z,33.46
2023-03-06T15:22:56.340Z,33.35
2023-03-06T15:28:02.282Z,28.58
2023-03-06T15:33:24.544Z,26.51
2023-03-06T15:38:33.853Z,25.72
2023-03-06T15:43:40.112Z,25.80
2023-03-06T15:48:52.474Z,28.46
2023-03-06T15:54:09.919Z,27.07
2023-03-06T15:59:19.247Z,27.78
2023-03-06T16:04:22.156Z,29.24
2023-03-06T16:09:25.008Z,28.60
2023-03-06T16:14:29.441Z,28.62
2023-03-06T16:19:32.270Z,27.04
2023-03-06T16:24:35.099Z,26.31
2023-03-06T16:29:39.987Z,25.97
2023-03-06T16:34:42.916Z,25.74
2023-03-06T16:39:45.810Z,25.78
2023-03-06T16:44:50.048Z,25.43
2023-03-06T16:49:57.345Z,24.75
2023-03-06T16:55:00.302Z,25.13
2023-03-06T17:00:06.498Z,24.62
2023-03-06T17:05:10.830Z,23.70
2023-03-06T17:10:16.076Z,23.37
2023-03-06T17:15:20.940Z,22.99
2023-03-06T17:20:24.261Z,22.08
2023-03-06T17:25:27.200Z,23.26
2023-03-06T17:30:31.423Z,23.40
2023-03-06T17:35:35.619Z,25.19
2023-03-06T17:40:38.488Z,26.36
2023-03-06T17:45:42.733Z,26.71
2023-03-06T17:50:53.753Z,27.60
2023-03-06T17:55:58.001Z,27.18
2023-03-06T18:01:02.445Z,28.07
2023-03-06T18:06:09.318Z,27.62
2023-03-06T18:11:12.669Z,27.83
2023-03-06T18:16:19.033Z,28.28
2023-03-06T18:21:22.265Z,29.88
2023-03-06T18:26:26.704Z,29.11
2023-03-06T18:31:34.283Z,29.50
2023-03-06T18:36:38.281Z,30.18
2023-03-06T18:41:41.408Z,29.43
2023-03-06T18:46:45.924Z,30.06
2023-03-06T18:51:50.715Z,30.30
2023-03-06T18:56:53.535Z,31.20
2023-03-06T19:01:59.211Z,30.24
2023-03-06T19:07:02.089Z,29.64
2023-03-06T19:12:05.695Z,29.90
2023-03-06T19:17:09.946Z,30.48
2023-03-06T19:22:12.782Z,31.17
2023-03-06T19:27:15.630Z,30.55
2023-03-06T19:32:20.388Z,30.35
2023-03-06T19:37:23.514Z,31.35
2023-03-06T19:42:26.484Z,31.90
2023-03-06T19:47:30.654Z,32.39
2023-03-06T19:52:36.952Z,33.01
2023-03-06T19:57:39.768Z,33.85
2023-03-06T20:02:43.955Z,33.68
2023-03-06T20:07:46.887Z,33.72
2023-03-06T20:12:49.721Z,34.14
2023-03-06T20:17:55.283Z,34.15
2023-03-06T20:23:02.468Z,33.79
2023-03-06T20:28:05.700Z,34.48
2023-03-06T20:33:09.894Z,35.11
2023-03-06T20:38:12.731Z,35.00
2023-03-06T20:43:15.971Z,35.54
2023-03-06T20:48:20.163Z,35.09
2023-03-06T20:53:22.972Z,35.31
2023-03-06T20:58:28.621Z,34.98
2023-03-06T21:03:32.821Z,35.66
2023-03-06T21:08:35.668Z,35.75
2023-03-06T21:13:38.597Z,35.88
2023-03-06T21:18:43.107Z,36.52
2023-03-06T21:23:46.353Z,37.05
2023-03-06T21:28:49.411Z,37.15
2023-03-06T21:33:53.574Z,36.80
2023-03-06T21:38:56.601Z,37.36
2023-03-06T21:44:01.327Z,38.36
2023-03-06T21:49:06.109Z,38.48
2023-03-06T21:54:09.678Z,38.07
2023-03-06T21:59:12.545Z,37.90
2023-03-06T22:04:16.901Z,38.78
2023-03-06T22:09:19.927Z,38.22
2023-03-06T22:14:22.706Z,38.78
2023-03-06T22:19:27.002Z,38.64
2023-03-06T22:24:29.853Z,39.69
2023-03-06T22:29:32.738Z,38.08
2023-03-06T22:34:36.915Z,38.73
2023-03-06T22:39:39.957Z,39.50
2023-03-06T22:44:42.789Z,39.79
2023-03-06T22:49:47.586Z,39.52
2023-03-06T22:54:50.449Z,39.28
2023-03-06T22:59:53.293Z,39.27
2023-03-06T23:04:57.441Z,40.67
2023-03-06T23:10:00.378Z,39.73
2023-03-06T23:15:03.290Z,40.32
2023-03-06T23:20:10.337Z,40.10
2023-03-06T23:25:14.753Z,40.61
2023-03-06T23:30:18.037Z,39.89
2023-03-06T23:35:22.288Z,39.95
2023-03-06T23:40:25.308Z,40.19
2023-03-06T23:45:28.384Z,40.18
2023-03-06T23:50:33.027Z,40.53
2023-03-06T23:55:35.990Z,39.68
